Terminal Aerodrome Forecast
Issued by NWS Albany, NY

Home | Current Version | Previous Version | Text Only | Print | Product List | Glossary On
Versions: 1 2 3 4 5 6 7 8 9 10 11 12 13 14 15 16 17 18 19 20 21 22 23 24 25 26 27
872
FTUS41 KALY 200540
TAFPOU
TAF
KPOU 200540Z 2006/2106 25004KT P6SM SCT120 BKN250
     FM200900 00000KT 6SM BR BKN250
     FM201200 26005KT P6SM FEW050 SCT250
     FM201700 30008KT P6SM SCT050
     FM210000 VRB03KT P6SM SKC=

USA.gov is the U.S. government's official web portal to all federal, state and local government web resources and services.